Time,TemperatureF,DewpointF,PressureIn,WindDirection,WindDirectionDegrees,WindSpeedMPH,WindSpeedGustMPH,Humidity,HourlyPrecipIn,Conditions,Clouds,dailyrainin,SoftwareType,DateUTC
2013-11-24 00:03:00,-999.0,-99.9,30.53,NW,313,11.0,15.0,-999,-99.99,,,-99.99,,2013-11-24 05:03:00,
2013-11-24 00:12:00,-999.0,-99.9,30.53,NW,319,11.0,15.0,-999,-99.99,,,-99.99,,2013-11-24 05:12:00,
2013-11-24 00:34:00,-999.0,-99.9,30.53,NW,309,11.0,16.0,-999,-99.99,,,-99.99,,2013-11-24 05:34:00,
2013-11-24 00:43:00,-999.0,-99.9,30.53,NW,315,13.0,17.0,-999,-99.99,,,-99.99,,2013-11-24 05:43:00,
2013-11-24 01:02:00,-999.0,-99.9,30.53,NW,317,9.0,13.0,-999,-99.99,,,-99.99,,2013-11-24 06:02:00,
2013-11-24 01:12:00,-999.0,-99.9,30.53,NW,308,11.0,13.0,-999,-99.99,,,-99.99,,2013-11-24 06:12:00,
2013-11-24 01:33:00,-999.0,-99.9,30.53,NW,311,8.0,12.0,-999,-99.99,,,-99.99,,2013-11-24 06:33:00,
2013-11-24 01:42:00,-999.0,-99.9,30.52,NW,314,7.0,12.0,-999,-99.99,,,-99.99,,2013-11-24 06:42:00,
2013-11-24 01:52:00,18.0,-99.9,30.53,NW,318,10.0,14.0,-999,-99.99,,,-99.99,,2013-11-24 06:52:00,
2013-11-24 02:02:00,-999.0,-99.9,30.53,NW,314,9.0,12.0,-999,-99.99,,,-99.99,,2013-11-24 07:02:00,
2013-11-24 02:11:00,-999.0,-99.9,30.53,NW,307,8.0,12.0,-999,-99.99,,,-99.99,,2013-11-24 07:11:00,
2013-11-24 02:32:00,-999.0,-99.9,30.54,NW,306,9.0,14.0,-999,-99.99,,,-99.99,,2013-11-24 07:32:00,
2013-11-24 02:42:00,-999.0,-99.9,30.54,NW,306,10.0,16.0,-999,-99.99,,,-99.99,,2013-11-24 07:42:00,
2013-11-24 03:02:00,-999.0,-99.9,30.54,NW,318,13.0,19.0,-999,-99.99,,,-99.99,,2013-11-24 08:02:00,
2013-11-24 03:12:00,-999.0,-99.9,30.55,NW,322,14.0,18.0,-999,-99.99,,,-99.99,,2013-11-24 08:12:00,
2013-11-24 03:32:00,-999.0,-99.9,30.55,NW,311,11.0,16.0,-999,-99.99,,,-99.99,,2013-11-24 08:32:00,
2013-11-24 03:42:00,-999.0,-99.9,30.55,NW,321,9.0,13.0,-999,-99.99,,,-99.99,,2013-11-24 08:42:00,
2013-11-24 04:02:00,-999.0,-99.9,30.54,NNW,328,9.0,18.0,-999,-99.99,,,-99.99,,2013-11-24 09:02:00,
2013-11-24 04:12:00,-999.0,-99.9,30.55,NW,317,7.0,13.0,-999,-99.99,,,-99.99,,2013-11-24 09:12:00,
2013-11-24 04:33:00,-999.0,-99.9,30.55,NW,314,7.0,12.0,-999,-99.99,,,-99.99,,2013-11-24 09:33:00,
2013-11-24 04:43:00,-999.0,-99.9,30.54,NW,305,7.0,13.0,-999,-99.99,,,-99.99,,2013-11-24 09:43:00,
2013-11-24 05:03:00,-999.0,-99.9,30.55,NW,311,8.0,13.0,-999,-99.99,,,-99.99,,2013-11-24 10:03:00,
2013-11-24 05:13:00,-999.0,-99.9,30.55,WNW,303,7.0,10.0,-999,-99.99,,,-99.99,,2013-11-24 10:13:00,
2013-11-24 05:33:00,-999.0,-99.9,30.56,WNW,298,8.0,10.0,-999,-99.99,,,-99.99,,2013-11-24 10:33:00,
2013-11-24 05:43:00,-999.0,-99.9,30.56,WNW,300,8.0,10.0,-999,-99.99,,,-99.99,,2013-11-24 10:43:00,
2013-11-24 06:03:00,-999.0,-99.9,30.56,NW,306,9.0,11.0,-999,-99.99,,,-99.99,,2013-11-24 11:03:00,
2013-11-24 06:12:00,-999.0,-99.9,30.56,NW,309,8.0,11.0,-999,-99.99,,,-99.99,,2013-11-24 11:12:00,
2013-11-24 06:22:00,-999.0,-99.9,30.56,WNW,292,7.0,9.0,-999,-99.99,,,-99.99,,2013-11-24 11:22:00,
2013-11-24 06:33:00,-999.0,-99.9,30.56,WNW,295,8.0,10.0,-999,-99.99,,,-99.99,,2013-11-24 11:33:00,
2013-11-24 06:43:00,-999.0,-99.9,30.57,WNW,295,7.0,10.0,-999,-99.99,,,-99.99,,2013-11-24 11:43:00,
2013-11-24 07:02:00,-999.0,-99.9,30.57,WNW,289,8.0,10.0,-999,-99.99,,,-99.99,,2013-11-24 12:02:00,
2013-11-24 07:12:00,-999.0,-99.9,30.57,WNW,290,8.0,10.0,-999,-99.99,,,-99.99,,2013-11-24 12:12:00,
2013-11-24 07:22:00,-999.0,-99.9,30.58,WNW,286,9.0,10.0,-999,-99.99,,,-99.99,,2013-11-24 12:22:00,
2013-11-24 07:32:00,-999.0,-99.9,30.58,WNW,284,6.0,9.0,-999,-99.99,,,-99.99,,2013-11-24 12:32:00,
2013-11-24 07:42:00,-999.0,-99.9,30.58,West,271,9.0,11.0,-999,-99.99,,,-99.99,,2013-11-24 12:42:00,
2013-11-24 07:53:00,-999.0,-99.9,30.58,West,275,6.0,9.0,-999,-99.99,,,-99.99,,2013-11-24 12:53:00,
2013-11-24 08:02:00,-999.0,-99.9,30.58,WNW,284,6.0,9.0,-999,-99.99,,,-99.99,,2013-11-24 13:02:00,
2013-11-24 08:12:00,-999.0,-99.9,30.58,WNW,296,5.0,9.0,-999,-99.99,,,-99.99,,2013-11-24 13:12:00,
2013-11-24 08:22:00,15.0,-99.9,30.59,WNW,298,7.0,9.0,-999,-99.99,,,-99.99,,2013-11-24 13:22:00,
2013-11-24 08:32:00,-999.0,-99.9,30.59,WNW,290,8.0,12.0,-999,-99.99,,,-99.99,,2013-11-24 13:32:00,
2013-11-24 08:42:00,-999.0,-99.9,30.60,WNW,293,9.0,12.0,-999,-99.99,,,-99.99,,2013-11-24 13:42:00,
2013-11-24 09:02:00,-999.0,-99.9,30.60,WNW,298,9.0,12.0,-999,-99.99,,,-99.99,,2013-11-24 14:02:00,
2013-11-24 09:11:00,-999.0,-99.9,30.60,WNW,292,9.0,13.0,-999,-99.99,,,-99.99,,2013-11-24 14:11:00,
2013-11-24 09:32:00,-999.0,-99.9,30.61,NW,310,11.0,13.0,-999,-99.99,,,-99.99,,2013-11-24 14:32:00,
2013-11-24 09:42:00,-999.0,-99.9,30.61,NW,307,12.0,14.0,-999,-99.99,,,-99.99,,2013-11-24 14:42:00,
2013-11-24 09:53:00,19.0,-99.9,30.61,NW,305,11.0,14.0,-999,-99.99,,,-99.99,,2013-11-24 14:53:00,
2013-11-24 10:02:00,-999.0,-99.9,30.61,NW,310,11.0,16.0,-999,-99.99,,,-99.99,,2013-11-24 15:02:00,
2013-11-24 10:12:00,-999.0,-99.9,30.61,NW,323,11.0,15.0,-999,-99.99,,,-99.99,,2013-11-24 15:12:00,
2013-11-24 10:22:00,-999.0,-99.9,30.61,NW,319,15.0,21.0,-999,-99.99,,,-99.99,,2013-11-24 15:22:00,
2013-11-24 10:33:00,-999.0,-99.9,30.61,NW,317,11.0,20.0,-999,-99.99,,,-99.99,,2013-11-24 15:33:00,
2013-11-24 10:44:00,-999.0,-99.9,30.61,NW,323,14.0,20.0,-999,-99.99,,,-99.99,,2013-11-24 15:44:00,
2013-11-24 10:53:00,-999.0,-99.9,30.60,NW,315,12.0,18.0,-999,-99.99,,,-99.99,,2013-11-24 15:53:00,
2013-11-24 11:04:00,-999.0,-99.9,30.60,NNW,333,13.0,19.0,-999,-99.99,,,-99.99,,2013-11-24 16:04:00,
2013-11-24 11:13:00,-999.0,-99.9,30.60,NW,319,12.0,17.0,-999,-99.99,,,-99.99,,2013-11-24 16:13:00,
2013-11-24 11:23:00,22.0,-99.9,30.61,NW,316,10.0,18.0,-999,-99.99,,,-99.99,,2013-11-24 16:23:00,
2013-11-24 11:33:00,-999.0,-99.9,30.60,NW,305,13.0,17.0,-999,-99.99,,,-99.99,,2013-11-24 16:33:00,
2013-11-24 11:43:00,-999.0,-99.9,30.60,NW,317,11.0,20.0,-999,-99.99,,,-99.99,,2013-11-24 16:43:00,
2013-11-24 12:03:00,-999.0,-99.9,30.60,NW,318,13.0,18.0,-999,-99.99,,,-99.99,,2013-11-24 17:03:00,
2013-11-24 12:12:00,-999.0,-99.9,30.59,WNW,297,12.0,17.0,-999,-99.99,,,-99.99,,2013-11-24 17:12:00,
2013-11-24 12:33:00,-999.0,-99.9,30.58,NW,310,12.0,19.0,-999,-99.99,,,-99.99,,2013-11-24 17:33:00,
2013-11-24 12:43:00,-999.0,-99.9,30.58,NW,312,13.0,18.0,-999,-99.99,,,-99.99,,2013-11-24 17:43:00,
2013-11-24 13:02:00,-999.0,-99.9,30.57,WNW,287,11.0,17.0,-999,-99.99,,,-99.99,,2013-11-24 18:02:00,
2013-11-24 13:12:00,-999.0,-99.9,30.57,WNW,294,13.0,19.0,-999,-99.99,,,-99.99,,2013-11-24 18:12:00,
2013-11-24 13:33:00,-999.0,-99.9,30.56,NW,312,15.0,18.0,-999,-99.99,,,-99.99,,2013-11-24 18:33:00,
2013-11-24 13:42:00,-999.0,-99.9,30.56,WNW,296,11.0,20.0,-999,-99.99,,,-99.99,,2013-11-24 18:42:00,
2013-11-24 14:02:00,-999.0,-99.9,30.56,WNW,290,14.0,22.0,-999,-99.99,,,-99.99,,2013-11-24 19:02:00,
2013-11-24 14:12:00,-999.0,-99.9,30.55,WNW,303,13.0,21.0,-999,-99.99,,,-99.99,,2013-11-24 19:12:00,
2013-11-24 14:32:00,-999.0,-99.9,30.55,WNW,283,13.0,20.0,-999,-99.99,,,-99.99,,2013-11-24 19:32:00,
2013-11-24 14:42:00,-999.0,-99.9,30.55,NW,306,15.0,20.0,-999,-99.99,,,-99.99,,2013-11-24 19:42:00,
2013-11-24 15:02:00,-999.0,-99.9,30.54,WNW,290,15.0,23.0,-999,-99.99,,,-99.99,,2013-11-24 20:02:00,
2013-11-24 15:12:00,-999.0,-99.9,30.53,WNW,283,16.0,20.0,-999,-99.99,,,-99.99,,2013-11-24 20:12:00,
2013-11-24 15:32:00,-999.0,-99.9,30.53,West,274,14.0,21.0,-999,-99.99,,,-99.99,,2013-11-24 20:32:00,
2013-11-24 15:42:00,-999.0,-99.9,30.54,WNW,295,18.0,20.0,-999,-99.99,,,-99.99,,2013-11-24 20:42:00,
2013-11-24 16:02:00,-999.0,-99.9,30.54,NW,304,11.0,15.0,-999,-99.99,,,-99.99,,2013-11-24 21:02:00,
2013-11-24 16:11:00,-999.0,-99.9,30.54,WNW,298,12.0,16.0,-999,-99.99,,,-99.99,,2013-11-24 21:11:00,
2013-11-24 16:22:00,24.0,-99.9,30.54,WNW,291,11.0,14.0,-999,-99.99,,,-99.99,,2013-11-24 21:22:00,
2013-11-24 16:34:00,-999.0,-99.9,30.54,NW,308,13.0,16.0,-999,-99.99,,,-99.99,,2013-11-24 21:34:00,
2013-11-24 16:43:00,-999.0,-99.9,30.55,NW,311,10.0,14.0,-999,-99.99,,,-99.99,,2013-11-24 21:43:00,
2013-11-24 17:03:00,-999.0,-99.9,30.54,WNW,294,13.0,16.0,-999,-99.99,,,-99.99,,2013-11-24 22:03:00,
2013-11-24 17:13:00,-999.0,-99.9,30.54,WNW,292,8.0,13.0,-999,-99.99,,,-99.99,,2013-11-24 22:13:00,
2013-11-24 17:33:00,-999.0,-99.9,30.53,WNW,303,10.0,13.0,-999,-99.99,,,-99.99,,2013-11-24 22:33:00,
2013-11-24 17:43:00,-999.0,-99.9,30.54,NW,307,7.0,9.0,-999,-99.99,,,-99.99,,2013-11-24 22:43:00,
2013-11-24 18:02:00,-999.0,-99.9,30.54,WNW,299,8.0,11.0,-999,-99.99,,,-99.99,,2013-11-24 23:02:00,
2013-11-24 18:12:00,-999.0,-99.9,30.54,WNW,296,6.0,10.0,-999,-99.99,,,-99.99,,2013-11-24 23:12:00,
2013-11-24 18:33:00,-999.0,-99.9,30.53,WNW,295,10.0,14.0,-999,-99.99,,,-99.99,,2013-11-24 23:33:00,
2013-11-24 18:42:00,-999.0,-99.9,30.54,WNW,291,7.0,11.0,-999,-99.99,,,-99.99,,2013-11-24 23:42:00,
2013-11-24 18:52:00,24.0,-99.9,30.54,WNW,287,7.0,9.0,-999,-99.99,,,-99.99,,2013-11-24 23:52:00,
2013-11-24 19:02:00,-999.0,-99.9,30.53,WNW,290,5.0,10.0,-999,-99.99,,,-99.99,,2013-11-25 00:02:00,
2013-11-24 19:12:00,-999.0,-99.9,30.53,WNW,288,5.0,6.0,-999,-99.99,,,-99.99,,2013-11-25 00:12:00,
2013-11-24 19:32:00,-999.0,-99.9,30.52,West,273,6.0,7.0,-999,-99.99,,,-99.99,,2013-11-25 00:32:00,
2013-11-24 19:43:00,-999.0,-99.9,30.52,West,267,4.0,7.0,-999,-99.99,,,-99.99,,2013-11-25 00:43:00,
2013-11-24 20:02:00,-999.0,-99.9,30.51,WSW,242,4.0,7.0,-999,-99.99,,,-99.99,,2013-11-25 01:02:00,
2013-11-24 20:11:00,-999.0,-99.9,30.51,WSW,239,4.0,7.0,-999,-99.99,,,-99.99,,2013-11-25 01:11:00,
2013-11-24 20:32:00,-999.0,-99.9,30.50,SW,222,4.0,6.0,-999,-99.99,,,-99.99,,2013-11-25 01:32:00,
2013-11-24 20:43:00,-999.0,-99.9,30.50,WSW,238,6.0,7.0,-999,-99.99,,,-99.99,,2013-11-25 01:43:00,
2013-11-24 21:01:00,-999.0,-99.9,30.50,WSW,237,6.0,8.0,-999,-99.99,,,-99.99,,2013-11-25 02:01:00,
2013-11-24 21:12:00,-999.0,-99.9,30.49,SSW,196,5.0,7.0,-999,-99.99,,,-99.99,,2013-11-25 02:12:00,
2013-11-24 21:32:00,-999.0,-99.9,30.49,SSW,209,7.0,9.0,-999,-99.99,,,-99.99,,2013-11-25 02:32:00,
2013-11-24 21:43:00,-999.0,-99.9,30.49,WSW,245,8.0,10.0,-999,-99.99,,,-99.99,,2013-11-25 02:43:00,
2013-11-24 21:52:00,23.0,-99.9,30.49,WSW,241,7.0,11.0,-999,-99.99,,,-99.99,,2013-11-25 02:52:00,
2013-11-24 22:02:00,-999.0,-99.9,30.49,WSW,241,5.0,7.0,-999,-99.99,,,-99.99,,2013-11-25 03:02:00,
2013-11-24 22:12:00,-999.0,-99.9,30.48,WSW,241,7.0,10.0,-999,-99.99,,,-99.99,,2013-11-25 03:12:00,
2013-11-24 22:34:00,-999.0,-99.9,30.48,SW,235,8.0,12.0,-999,-99.99,,,-99.99,,2013-11-25 03:34:00,
2013-11-24 22:43:00,-999.0,-99.9,30.48,WSW,242,8.0,17.0,-999,-99.99,,,-99.99,,2013-11-25 03:43:00,
2013-11-24 22:53:00,-999.0,-99.9,30.47,WSW,237,9.0,13.0,-999,-99.99,,,-99.99,,2013-11-25 03:53:00,
2013-11-24 23:03:00,-999.0,-99.9,30.47,SW,236,7.0,12.0,-999,-99.99,,,-99.99,,2013-11-25 04:03:00,
2013-11-24 23:13:00,-999.0,-99.9,30.47,WSW,242,9.0,15.0,-999,-99.99,,,-99.99,,2013-11-25 04:13:00,
2013-11-24 23:34:00,-999.0,-99.9,30.46,WSW,242,9.0,14.0,-999,-99.99,,,-99.99,,2013-11-25 04:34:00,
2013-11-24 23:43:00,-999.0,-99.9,30.46,WSW,240,9.0,13.0,-999,-99.99,,,-99.99,,2013-11-25 04:43:00,
2013-11-24 23:53:00,23.0,-99.9,30.46,WSW,240,9.0,14.0,-999,-99.99,,,-99.99,,2013-11-25 04:53:00,